Paso Robles, California
Current Conditions -  °F | °C
As of 2:53 PM on Saturday 25 Oct 2014 (Local Time) from KPRB Reporting Station
Overcast Overcast  
Wind Chill: 72°   Ceiling: 3400
Heat Index: 72°   Visibility: 10mi
Dew Point: 54°   Wind: 10mph
Humidity: 53%   Direction: 300°WNW
Pressure: 30.07"   Gusts: 16mph
Location:  35.67°N, 120.63°W
Report Text: KPRB 252153Z AUTO 30009G14KT 10SM OVC034 22/12 A3007 RMK AO2 SLP179 T02220122 TSNO
Loading
Personal Weather Stations






























Interactive Weather Map
Tropical Storm Tracking
New forecast layout! Learn more

10-Day Weather Forecast

Advertisements
Track Severe Weather on mobile